sensor_id;sensor_type;location;lat;lon;timestamp;temperature;humidity
37956;DHT22;23776;51.592;7.180;2024-02-16T00:00:01;13.10;1.00
37956;DHT22;23776;51.592;7.180;2024-02-16T00:02:26;13.10;5.90
37956;DHT22;23776;51.592;7.180;2024-02-16T00:04:52;13.10;1.00
37956;DHT22;23776;51.592;7.180;2024-02-16T00:07:18;13.10;1.00
37956;DHT22;23776;51.592;7.180;2024-02-16T00:09:43;13.10;1.00
37956;DHT22;23776;51.592;7.180;2024-02-16T00:12:09;13.10;1.00
37956;DHT22;23776;51.592;7.180;2024-02-16T00:14:34;13.10;1.00
37956;DHT22;23776;51.592;7.180;2024-02-16T00:17:00;13.10;99.90
37956;DHT22;23776;51.592;7.180;2024-02-16T00:19:25;13.10;99.90
37956;DHT22;23776;51.592;7.180;2024-02-16T00:21:52;13.10;99.90
37956;DHT22;23776;51.592;7.180;2024-02-16T00:24:17;13.10;1.00
37956;DHT22;23776;51.592;7.180;2024-02-16T00:26:43;13.10;1.00
37956;DHT22;23776;51.592;7.180;2024-02-16T00:29:10;13.00;11.30
37956;DHT22;23776;51.592;7.180;2024-02-16T00:31:36;13.00;39.30
37956;DHT22;23776;51.592;7.180;2024-02-16T00:34:02;13.00;72.30
37956;DHT22;23776;51.592;7.180;2024-02-16T00:36:27;13.00;99.90
37956;DHT22;23776;51.592;7.180;2024-02-16T00:38:53;13.00;99.90
37956;DHT22;23776;51.592;7.180;2024-02-16T00:41:20;13.00;99.90
37956;DHT22;23776;51.592;7.180;2024-02-16T00:43:45;13.00;99.90
37956;DHT22;23776;51.592;7.180;2024-02-16T00:46:11;13.00;91.10
37956;DHT22;23776;51.592;7.180;2024-02-16T00:48:36;12.30;1.00
37956;DHT22;23776;51.592;7.180;2024-02-16T00:51:02;13.10;1.00
37956;DHT22;23776;51.592;7.180;2024-02-16T00:53:28;13.20;99.90
37956;DHT22;23776;51.592;7.180;2024-02-16T00:55:54;13.20;99.90
37956;DHT22;23776;51.592;7.180;2024-02-16T00:58:19;13.30;99.90
37956;DHT22;23776;51.592;7.180;2024-02-16T01:00:45;13.30;99.90
37956;DHT22;23776;51.592;7.180;2024-02-16T01:03:11;13.30;99.90
37956;DHT22;23776;51.592;7.180;2024-02-16T01:05:39;13.30;99.90
37956;DHT22;23776;51.592;7.180;2024-02-16T01:08:05;13.30;99.90
37956;DHT22;23776;51.592;7.180;2024-02-16T01:10:31;13.20;1.00
37956;DHT22;23776;51.592;7.180;2024-02-16T01:12:56;13.20;1.00
37956;DHT22;23776;51.592;7.180;2024-02-16T01:15:22;13.20;1.00
37956;DHT22;23776;51.592;7.180;2024-02-16T01:17:48;13.10;3.80
37956;DHT22;23776;51.592;7.180;2024-02-16T01:20:13;13.10;1.00
37956;DHT22;23776;51.592;7.180;2024-02-16T01:22:39;13.10;1.00
37956;DHT22;23776;51.592;7.180;2024-02-16T01:25:06;13.10;99.90
37956;DHT22;23776;51.592;7.180;2024-02-16T01:27:32;13.20;99.90
37956;DHT22;23776;51.592;7.180;2024-02-16T01:29:58;13.20;80.20
37956;DHT22;23776;51.592;7.180;2024-02-16T01:32:23;13.20;90.50
37956;DHT22;23776;51.592;7.180;2024-02-16T01:34:49;13.20;22.30
37956;DHT22;23776;51.592;7.180;2024-02-16T01:37:15;13.20;1.00
37956;DHT22;23776;51.592;7.180;2024-02-16T01:39:40;13.20;1.00
37956;DHT22;23776;51.592;7.180;2024-02-16T01:42:06;13.30;99.90
37956;DHT22;23776;51.592;7.180;2024-02-16T01:44:31;13.30;1.00
37956;DHT22;23776;51.592;7.180;2024-02-16T01:46:57;13.30;1.00
37956;DHT22;23776;51.592;7.180;2024-02-16T01:49:23;13.30;99.90
37956;DHT22;23776;51.592;7.180;2024-02-16T01:51:49;13.30;99.90
37956;DHT22;23776;51.592;7.180;2024-02-16T01:54:15;13.30;99.90
37956;DHT22;23776;51.592;7.180;2024-02-16T01:56:44;13.20;1.00
37956;DHT22;23776;51.592;7.180;2024-02-16T01:59:10;13.20;11.70
37956;DHT22;23776;51.592;7.180;2024-02-16T02:01:35;13.20;99.90
37956;DHT22;23776;51.592;7.180;2024-02-16T02:04:02;13.20;99.90
37956;DHT22;23776;51.592;7.180;2024-02-16T02:06:27;13.20;99.90
37956;DHT22;23776;51.592;7.180;2024-02-16T02:08:53;13.20;1.00
37956;DHT22;23776;51.592;7.180;2024-02-16T02:11:19;13.10;1.00
37956;DHT22;23776;51.592;7.180;2024-02-16T02:13:44;13.10;1.00
37956;DHT22;23776;51.592;7.180;2024-02-16T02:16:10;13.10;33.30
37956;DHT22;23776;51.592;7.180;2024-02-16T02:18:37;13.10;99.90
37956;DHT22;23776;51.592;7.180;2024-02-16T02:21:03;13.00;99.90
37956;DHT22;23776;51.592;7.180;2024-02-16T02:23:28;13.00;99.90
37956;DHT22;23776;51.592;7.180;2024-02-16T02:25:54;12.90;99.90
37956;DHT22;23776;51.592;7.180;2024-02-16T02:28:19;12.80;99.90
37956;DHT22;23776;51.592;7.180;2024-02-16T02:30:48;12.80;99.90
37956;DHT22;23776;51.592;7.180;2024-02-16T02:33:13;12.70;99.90
37956;DHT22;23776;51.592;7.180;2024-02-16T02:35:39;12.60;99.90
37956;DHT22;23776;51.592;7.180;2024-02-16T02:38:05;12.50;99.90
37956;DHT22;23776;51.592;7.180;2024-02-16T02:40:31;12.40;99.90
37956;DHT22;23776;51.592;7.180;2024-02-16T02:42:57;12.40;1.00
37956;DHT22;23776;51.592;7.180;2024-02-16T02:45:23;12.30;1.00
37956;DHT22;23776;51.592;7.180;2024-02-16T02:47:50;12.30;1.00
37956;DHT22;23776;51.592;7.180;2024-02-16T02:50:16;12.20;1.00
37956;DHT22;23776;51.592;7.180;2024-02-16T02:52:41;12.30;1.00
37956;DHT22;23776;51.592;7.180;2024-02-16T02:55:07;12.20;1.00
37956;DHT22;23776;51.592;7.180;2024-02-16T02:57:33;12.20;1.00
37956;DHT22;23776;51.592;7.180;2024-02-16T03:00:06;11.20;1.00
37956;DHT22;23776;51.592;7.180;2024-02-16T03:02:36;12.10;1.00
37956;DHT22;23776;51.592;7.180;2024-02-16T03:05:02;12.10;1.00
37956;DHT22;23776;51.592;7.180;2024-02-16T03:07:28;12.10;1.00
37956;DHT22;23776;51.592;7.180;2024-02-16T03:09:53;12.00;1.00
37956;DHT22;23776;51.592;7.180;2024-02-16T03:12:19;12.00;1.00
37956;DHT22;23776;51.592;7.180;2024-02-16T03:14:44;11.70;1.00
37956;DHT22;23776;51.592;7.180;2024-02-16T03:17:10;11.90;1.00
37956;DHT22;23776;51.592;7.180;2024-02-16T03:19:35;11.90;1.00
37956;DHT22;23776;51.592;7.180;2024-02-16T03:22:01;11.90;1.00
37956;DHT22;23776;51.592;7.180;2024-02-16T03:24:27;11.80;1.00
37956;DHT22;23776;51.592;7.180;2024-02-16T03:26:52;11.90;1.00
37956;DHT22;23776;51.592;7.180;2024-02-16T03:31:44;11.90;1.00
37956;DHT22;23776;51.592;7.180;2024-02-16T03:34:09;11.90;1.00
37956;DHT22;23776;51.592;7.180;2024-02-16T03:36:35;11.90;1.00
37956;DHT22;23776;51.592;7.180;2024-02-16T03:39:00;11.80;1.00
37956;DHT22;23776;51.592;7.180;2024-02-16T03:41:26;11.80;1.00
37956;DHT22;23776;51.592;7.180;2024-02-16T03:43:51;11.80;1.00
37956;DHT22;23776;51.592;7.180;2024-02-16T03:46:17;11.70;1.00
37956;DHT22;23776;51.592;7.180;2024-02-16T03:48:43;11.70;1.00
37956;DHT22;23776;51.592;7.180;2024-02-16T03:51:09;11.70;1.00
37956;DHT22;23776;51.592;7.180;2024-02-16T03:53:35;12.40;1.00
37956;DHT22;23776;51.592;7.180;2024-02-16T03:56:01;11.60;5.00
37956;DHT22;23776;51.592;7.180;2024-02-16T03:58:26;11.60;1.00
37956;DHT22;23776;51.592;7.180;2024-02-16T04:00:52;11.60;1.00
37956;DHT22;23776;51.592;7.180;2024-02-16T04:03:18;11.60;2.10
37956;DHT22;23776;51.592;7.180;2024-02-16T04:05:44;11.10;4.40
37956;DHT22;23776;51.592;7.180;2024-02-16T04:08:10;11.60;6.10
37956;DHT22;23776;51.592;7.180;2024-02-16T04:10:35;11.50;3.50
37956;DHT22;23776;51.592;7.180;2024-02-16T04:13:02;11.40;5.00
37956;DHT22;23776;51.592;7.180;2024-02-16T04:15:28;11.50;8.40
37956;DHT22;23776;51.592;7.180;2024-02-16T04:18:00;11.40;12.10
37956;DHT22;23776;51.592;7.180;2024-02-16T04:20:25;11.40;16.20
37956;DHT22;23776;51.592;7.180;2024-02-16T04:22:51;11.50;16.00
37956;DHT22;23776;51.592;7.180;2024-02-16T04:25:16;11.50;17.50
37956;DHT22;23776;51.592;7.180;2024-02-16T04:27:42;11.40;17.90
37956;DHT22;23776;51.592;7.180;2024-02-16T04:30:08;13.00;16.10
37956;DHT22;23776;51.592;7.180;2024-02-16T04:32:33;11.40;16.50
37956;DHT22;23776;51.592;7.180;2024-02-16T04:34:59;11.40;16.40
37956;DHT22;23776;51.592;7.180;2024-02-16T04:37:27;11.40;18.40
37956;DHT22;23776;51.592;7.180;2024-02-16T04:39:53;11.30;18.40
37956;DHT22;23776;51.592;7.180;2024-02-16T04:42:19;11.30;18.30
37956;DHT22;23776;51.592;7.180;2024-02-16T04:44:44;11.40;14.00
37956;DHT22;23776;51.592;7.180;2024-02-16T04:47:10;11.40;15.70
37956;DHT22;23776;51.592;7.180;2024-02-16T04:49:36;11.40;15.30
37956;DHT22;23776;51.592;7.180;2024-02-16T04:52:02;11.40;15.10
37956;DHT22;23776;51.592;7.180;2024-02-16T04:54:28;11.40;16.40
37956;DHT22;23776;51.592;7.180;2024-02-16T04:56:53;11.40;19.10
37956;DHT22;23776;51.592;7.180;2024-02-16T04:59:19;11.30;19.90
37956;DHT22;23776;51.592;7.180;2024-02-16T05:01:45;11.30;21.00
37956;DHT22;23776;51.592;7.180;2024-02-16T05:04:11;11.40;25.90
37956;DHT22;23776;51.592;7.180;2024-02-16T05:06:39;11.40;29.10
37956;DHT22;23776;51.592;7.180;2024-02-16T05:09:05;11.40;28.10
37956;DHT22;23776;51.592;7.180;2024-02-16T05:11:34;11.30;28.00
37956;DHT22;23776;51.592;7.180;2024-02-16T05:14:00;11.30;29.00
37956;DHT22;23776;51.592;7.180;2024-02-16T05:16:26;11.30;30.40
37956;DHT22;23776;51.592;7.180;2024-02-16T05:18:52;11.30;32.60
37956;DHT22;23776;51.592;7.180;2024-02-16T05:21:17;11.20;33.20
37956;DHT22;23776;51.592;7.180;2024-02-16T05:23:43;11.20;36.00
37956;DHT22;23776;51.592;7.180;2024-02-16T05:26:08;11.20;36.30
37956;DHT22;23776;51.592;7.180;2024-02-16T05:28:34;11.20;36.10
37956;DHT22;23776;51.592;7.180;2024-02-16T05:31:14;11.20;38.80
37956;DHT22;23776;51.592;7.180;2024-02-16T05:33:44;11.10;38.90
37956;DHT22;23776;51.592;7.180;2024-02-16T05:36:10;11.10;40.90
37956;DHT22;23776;51.592;7.180;2024-02-16T05:38:37;11.20;41.40
37956;DHT22;23776;51.592;7.180;2024-02-16T05:41:10;11.20;23.30
37956;DHT22;23776;51.592;7.180;2024-02-16T05:43:37;11.40;3.50
37956;DHT22;23776;51.592;7.180;2024-02-16T05:46:03;11.70;1.00
37956;DHT22;23776;51.592;7.180;2024-02-16T05:48:33;12.10;1.00
37956;DHT22;23776;51.592;7.180;2024-02-16T05:51:03;12.00;1.00
37956;DHT22;23776;51.592;7.180;2024-02-16T05:53:28;12.30;1.00
37956;DHT22;23776;51.592;7.180;2024-02-16T05:55:54;12.50;1.00
37956;DHT22;23776;51.592;7.180;2024-02-16T05:58:20;12.60;1.00
37956;DHT22;23776;51.592;7.180;2024-02-16T06:00:46;12.80;1.00
37956;DHT22;23776;51.592;7.180;2024-02-16T06:03:13;12.90;1.00
37956;DHT22;23776;51.592;7.180;2024-02-16T06:05:38;12.90;99.90
37956;DHT22;23776;51.592;7.180;2024-02-16T06:08:06;13.00;99.90
37956;DHT22;23776;51.592;7.180;2024-02-16T06:10:32;13.10;99.90
37956;DHT22;23776;51.592;7.180;2024-02-16T06:12:58;13.10;99.90
37956;DHT22;23776;51.592;7.180;2024-02-16T06:15:24;13.10;99.90
37956;DHT22;23776;51.592;7.180;2024-02-16T06:17:49;13.10;99.90
37956;DHT22;23776;51.592;7.180;2024-02-16T06:20:18;13.10;99.90
37956;DHT22;23776;51.592;7.180;2024-02-16T06:22:44;13.20;99.90
37956;DHT22;23776;51.592;7.180;2024-02-16T06:25:09;13.20;99.90
37956;DHT22;23776;51.592;7.180;2024-02-16T06:27:35;13.20;99.90
37956;DHT22;23776;51.592;7.180;2024-02-16T06:30:02;13.20;99.90
37956;DHT22;23776;51.592;7.180;2024-02-16T06:32:29;13.20;99.90
37956;DHT22;23776;51.592;7.180;2024-02-16T06:34:56;13.40;99.90
37956;DHT22;23776;51.592;7.180;2024-02-16T06:37:22;13.30;99.90
37956;DHT22;23776;51.592;7.180;2024-02-16T06:39:48;13.30;99.90
37956;DHT22;23776;51.592;7.180;2024-02-16T06:42:13;13.30;99.90
37956;DHT22;23776;51.592;7.180;2024-02-16T06:44:39;13.40;99.90
37956;DHT22;23776;51.592;7.180;2024-02-16T06:47:05;13.40;99.90
37956;DHT22;23776;51.592;7.180;2024-02-16T06:49:31;13.40;99.90
37956;DHT22;23776;51.592;7.180;2024-02-16T06:51:56;13.50;99.90
37956;DHT22;23776;51.592;7.180;2024-02-16T06:54:22;13.50;99.90
37956;DHT22;23776;51.592;7.180;2024-02-16T06:56:49;13.50;99.90
37956;DHT22;23776;51.592;7.180;2024-02-16T06:59:17;13.50;99.90
37956;DHT22;23776;51.592;7.180;2024-02-16T07:01:42;13.50;99.90
37956;DHT22;23776;51.592;7.180;2024-02-16T07:04:08;13.50;99.90
37956;DHT22;23776;51.592;7.180;2024-02-16T07:06:34;13.50;99.90
37956;DHT22;23776;51.592;7.180;2024-02-16T07:09:00;13.50;99.90
37956;DHT22;23776;51.592;7.180;2024-02-16T07:11:26;13.50;99.90
37956;DHT22;23776;51.592;7.180;2024-02-16T07:13:51;13.50;99.90
37956;DHT22;23776;51.592;7.180;2024-02-16T07:16:17;13.60;99.90
37956;DHT22;23776;51.592;7.180;2024-02-16T07:18:44;13.60;99.90
37956;DHT22;23776;51.592;7.180;2024-02-16T07:21:09;13.60;99.90
37956;DHT22;23776;51.592;7.180;2024-02-16T07:23:35;13.60;99.90
37956;DHT22;23776;51.592;7.180;2024-02-16T07:26:01;13.80;99.90
37956;DHT22;23776;51.592;7.180;2024-02-16T07:28:27;13.70;99.90
37956;DHT22;23776;51.592;7.180;2024-02-16T07:30:53;13.80;99.90
37956;DHT22;23776;51.592;7.180;2024-02-16T07:33:19;13.80;99.90
37956;DHT22;23776;51.592;7.180;2024-02-16T07:35:44;13.90;99.90
37956;DHT22;23776;51.592;7.180;2024-02-16T07:38:10;14.00;99.90
37956;DHT22;23776;51.592;7.180;2024-02-16T07:40:36;14.00;99.90
37956;DHT22;23776;51.592;7.180;2024-02-16T07:43:02;14.00;99.90
37956;DHT22;23776;51.592;7.180;2024-02-16T07:45:28;14.10;99.90
37956;DHT22;23776;51.592;7.180;2024-02-16T07:47:54;14.00;99.90
37956;DHT22;23776;51.592;7.180;2024-02-16T07:50:21;14.00;99.90
37956;DHT22;23776;51.592;7.180;2024-02-16T07:52:47;14.10;91.30
37956;DHT22;23776;51.592;7.180;2024-02-16T07:55:13;14.10;92.20
37956;DHT22;23776;51.592;7.180;2024-02-16T07:57:39;14.20;43.40
37956;DHT22;23776;51.592;7.180;2024-02-16T08:00:05;14.30;1.00
37956;DHT22;23776;51.592;7.180;2024-02-16T08:02:31;14.30;1.00
37956;DHT22;23776;51.592;7.180;2024-02-16T08:04:58;14.50;1.00
37956;DHT22;23776;51.592;7.180;2024-02-16T08:07:24;14.40;1.00
37956;DHT22;23776;51.592;7.180;2024-02-16T08:09:49;14.60;99.90
37956;DHT22;23776;51.592;7.180;2024-02-16T08:12:15;14.60;99.90
37956;DHT22;23776;51.592;7.180;2024-02-16T08:14:42;14.60;99.90
37956;DHT22;23776;51.592;7.180;2024-02-16T08:17:08;14.70;99.90
37956;DHT22;23776;51.592;7.180;2024-02-16T08:19:36;14.70;99.90
37956;DHT22;23776;51.592;7.180;2024-02-16T08:22:06;14.70;95.40
37956;DHT22;23776;51.592;7.180;2024-02-16T08:24:33;14.70;99.90
37956;DHT22;23776;51.592;7.180;2024-02-16T08:26:58;14.80;11.50
37956;DHT22;23776;51.592;7.180;2024-02-16T08:29:24;14.80;92.30
37956;DHT22;23776;51.592;7.180;2024-02-16T08:31:51;14.80;35.10
37956;DHT22;23776;51.592;7.180;2024-02-16T08:34:17;14.80;62.20
37956;DHT22;23776;51.592;7.180;2024-02-16T08:36:49;14.90;1.00
37956;DHT22;23776;51.592;7.180;2024-02-16T08:39:15;14.90;1.00
37956;DHT22;23776;51.592;7.180;2024-02-16T08:41:41;14.90;99.90
37956;DHT22;23776;51.592;7.180;2024-02-16T08:44:07;15.00;99.90
37956;DHT22;23776;51.592;7.180;2024-02-16T08:46:39;15.00;99.90
37956;DHT22;23776;51.592;7.180;2024-02-16T08:49:05;15.00;99.90
37956;DHT22;23776;51.592;7.180;2024-02-16T08:51:34;15.10;99.90
37956;DHT22;23776;51.592;7.180;2024-02-16T08:54:00;15.10;99.90
37956;DHT22;23776;51.592;7.180;2024-02-16T08:56:27;15.10;88.60
37956;DHT22;23776;51.592;7.180;2024-02-16T08:58:53;15.10;99.90
37956;DHT22;23776;51.592;7.180;2024-02-16T09:01:30;15.30;1.00
37956;DHT22;23776;51.592;7.180;2024-02-16T09:03:55;15.30;1.00
37956;DHT22;23776;51.592;7.180;2024-02-16T09:06:21;15.30;1.00
37956;DHT22;23776;51.592;7.180;2024-02-16T09:08:46;15.30;1.00
37956;DHT22;23776;51.592;7.180;2024-02-16T09:11:12;15.40;1.00
37956;DHT22;23776;51.592;7.180;2024-02-16T09:13:40;15.40;99.90
37956;DHT22;23776;51.592;7.180;2024-02-16T09:16:06;15.40;1.00
37956;DHT22;23776;51.592;7.180;2024-02-16T09:18:32;15.50;99.90
37956;DHT22;23776;51.592;7.180;2024-02-16T09:20:59;15.50;99.90
37956;DHT22;23776;51.592;7.180;2024-02-16T09:23:25;15.60;99.90
37956;DHT22;23776;51.592;7.180;2024-02-16T09:25:50;15.60;99.90
37956;DHT22;23776;51.592;7.180;2024-02-16T09:28:16;15.60;99.90
37956;DHT22;23776;51.592;7.180;2024-02-16T09:30:44;15.60;99.90
37956;DHT22;23776;51.592;7.180;2024-02-16T09:33:10;15.60;99.90
37956;DHT22;23776;51.592;7.180;2024-02-16T09:35:35;13.50;99.90
37956;DHT22;23776;51.592;7.180;2024-02-16T09:38:01;15.60;99.90
37956;DHT22;23776;51.592;7.180;2024-02-16T09:40:27;15.60;99.90
37956;DHT22;23776;51.592;7.180;2024-02-16T09:42:52;15.70;99.90
37956;DHT22;23776;51.592;7.180;2024-02-16T09:45:18;15.80;99.90
37956;DHT22;23776;51.592;7.180;2024-02-16T09:47:45;15.80;99.90
37956;DHT22;23776;51.592;7.180;2024-02-16T09:50:15;15.80;99.90
37956;DHT22;23776;51.592;7.180;2024-02-16T09:52:41;15.80;99.90
37956;DHT22;23776;51.592;7.180;2024-02-16T09:55:12;15.80;1.00
37956;DHT22;23776;51.592;7.180;2024-02-16T09:57:38;15.90;1.00
37956;DHT22;23776;51.592;7.180;2024-02-16T10:00:04;16.00;75.30
37956;DHT22;23776;51.592;7.180;2024-02-16T10:02:40;15.90;34.00
37956;DHT22;23776;51.592;7.180;2024-02-16T10:05:16;15.90;99.90
37956;DHT22;23776;51.592;7.180;2024-02-16T10:07:43;15.90;1.00
37956;DHT22;23776;51.592;7.180;2024-02-16T10:10:25;15.90;1.00
37956;DHT22;23776;51.592;7.180;2024-02-16T10:13:06;16.00;1.00
37956;DHT22;23776;51.592;7.180;2024-02-16T10:15:36;16.00;1.00
37956;DHT22;23776;51.592;7.180;2024-02-16T10:18:05;16.00;1.00
37956;DHT22;23776;51.592;7.180;2024-02-16T10:20:35;16.00;99.90
37956;DHT22;23776;51.592;7.180;2024-02-16T10:23:11;16.00;99.90
37956;DHT22;23776;51.592;7.180;2024-02-16T10:25:40;16.00;99.90
37956;DHT22;23776;51.592;7.180;2024-02-16T10:28:08;15.90;99.90
37956;DHT22;23776;51.592;7.180;2024-02-16T10:30:36;15.90;99.90
37956;DHT22;23776;51.592;7.180;2024-02-16T10:33:06;15.90;99.90
37956;DHT22;23776;51.592;7.180;2024-02-16T10:35:34;15.80;1.00
37956;DHT22;23776;51.592;7.180;2024-02-16T10:38:04;15.80;55.20
37956;DHT22;23776;51.592;7.180;2024-02-16T10:40:40;15.80;17.40
37956;DHT22;23776;51.592;7.180;2024-02-16T10:43:06;15.80;55.40
37956;DHT22;23776;51.592;7.180;2024-02-16T10:45:34;15.80;99.90
37956;DHT22;23776;51.592;7.180;2024-02-16T10:48:01;15.80;99.90
37956;DHT22;23776;51.592;7.180;2024-02-16T10:50:27;15.80;99.90
37956;DHT22;23776;51.592;7.180;2024-02-16T10:52:54;15.80;99.90
37956;DHT22;23776;51.592;7.180;2024-02-16T10:55:22;15.90;99.90
37956;DHT22;23776;51.592;7.180;2024-02-16T10:57:50;16.00;73.90
37956;DHT22;23776;51.592;7.180;2024-02-16T11:00:16;16.00;47.70
37956;DHT22;23776;51.592;7.180;2024-02-16T11:02:57;16.00;96.00
37956;DHT22;23776;51.592;7.180;2024-02-16T11:05:39;16.00;99.90
37956;DHT22;23776;51.592;7.180;2024-02-16T11:08:15;16.00;99.90
37956;DHT22;23776;51.592;7.180;2024-02-16T11:10:53;16.10;99.90
37956;DHT22;23776;51.592;7.180;2024-02-16T11:13:23;16.00;99.90
37956;DHT22;23776;51.592;7.180;2024-02-16T11:16:00;16.10;99.90
37956;DHT22;23776;51.592;7.180;2024-02-16T11:18:27;16.00;99.90
37956;DHT22;23776;51.592;7.180;2024-02-16T11:20:53;16.00;1.00
37956;DHT22;23776;51.592;7.180;2024-02-16T11:23:28;16.00;99.90
37956;DHT22;23776;51.592;7.180;2024-02-16T11:26:01;16.00;1.00
37956;DHT22;23776;51.592;7.180;2024-02-16T11:28:30;16.00;1.00
37956;DHT22;23776;51.592;7.180;2024-02-16T11:30:56;16.00;1.00
37956;DHT22;23776;51.592;7.180;2024-02-16T11:33:22;15.90;1.00
37956;DHT22;23776;51.592;7.180;2024-02-16T11:36:00;16.00;1.00
37956;DHT22;23776;51.592;7.180;2024-02-16T11:38:26;15.90;16.20
37956;DHT22;23776;51.592;7.180;2024-02-16T11:43:24;15.80;99.90
37956;DHT22;23776;51.592;7.180;2024-02-16T11:45:51;15.80;99.90
37956;DHT22;23776;51.592;7.180;2024-02-16T11:48:21;15.70;99.90
37956;DHT22;23776;51.592;7.180;2024-02-16T11:50:48;15.70;1.00
37956;DHT22;23776;51.592;7.180;2024-02-16T11:53:17;15.60;99.90
37956;DHT22;23776;51.592;7.180;2024-02-16T11:55:47;15.60;1.00
37956;DHT22;23776;51.592;7.180;2024-02-16T11:58:15;15.60;1.00
37956;DHT22;23776;51.592;7.180;2024-02-16T12:00:42;15.60;1.00
37956;DHT22;23776;51.592;7.180;2024-02-16T12:03:07;15.60;1.00
37956;DHT22;23776;51.592;7.180;2024-02-16T12:05:33;15.50;1.00
37956;DHT22;23776;51.592;7.180;2024-02-16T12:07:59;15.50;10.00
37956;DHT22;23776;51.592;7.180;2024-02-16T12:10:25;15.50;59.60
37956;DHT22;23776;51.592;7.180;2024-02-16T12:12:51;15.50;88.60
37956;DHT22;23776;51.592;7.180;2024-02-16T12:15:17;15.50;45.20
37956;DHT22;23776;51.592;7.180;2024-02-16T12:17:45;15.50;37.40
37956;DHT22;23776;51.592;7.180;2024-02-16T12:20:11;15.50;34.30
37956;DHT22;23776;51.592;7.180;2024-02-16T12:22:39;15.40;94.80
37956;DHT22;23776;51.592;7.180;2024-02-16T12:25:04;15.50;99.90
37956;DHT22;23776;51.592;7.180;2024-02-16T12:27:30;15.40;99.90
37956;DHT22;23776;51.592;7.180;2024-02-16T12:29:56;15.40;99.90
37956;DHT22;23776;51.592;7.180;2024-02-16T12:32:21;15.30;99.90
37956;DHT22;23776;51.592;7.180;2024-02-16T12:34:47;15.30;99.90
37956;DHT22;23776;51.592;7.180;2024-02-16T12:37:13;15.40;99.90
37956;DHT22;23776;51.592;7.180;2024-02-16T12:39:38;15.40;99.90
37956;DHT22;23776;51.592;7.180;2024-02-16T12:42:06;15.30;99.90
37956;DHT22;23776;51.592;7.180;2024-02-16T12:44:31;15.30;99.90
37956;DHT22;23776;51.592;7.180;2024-02-16T12:46:57;15.30;99.90
37956;DHT22;23776;51.592;7.180;2024-02-16T12:49:22;15.20;99.90
37956;DHT22;23776;51.592;7.180;2024-02-16T12:51:51;15.20;99.90
37956;DHT22;23776;51.592;7.180;2024-02-16T12:54:17;15.10;99.90
37956;DHT22;23776;51.592;7.180;2024-02-16T12:56:46;15.20;99.90
37956;DHT22;23776;51.592;7.180;2024-02-16T12:59:12;15.10;1.00
37956;DHT22;23776;51.592;7.180;2024-02-16T13:01:38;15.10;1.00
37956;DHT22;23776;51.592;7.180;2024-02-16T13:04:03;15.10;1.00
37956;DHT22;23776;51.592;7.180;2024-02-16T13:06:31;15.10;1.00
37956;DHT22;23776;51.592;7.180;2024-02-16T13:08:56;15.10;1.00
37956;DHT22;23776;51.592;7.180;2024-02-16T13:11:22;15.10;1.00
37956;DHT22;23776;51.592;7.180;2024-02-16T13:13:47;15.10;1.00
37956;DHT22;23776;51.592;7.180;2024-02-16T13:16:13;15.20;1.00
37956;DHT22;23776;51.592;7.180;2024-02-16T13:18:39;15.20;1.00
37956;DHT22;23776;51.592;7.180;2024-02-16T13:21:04;15.20;1.00
37956;DHT22;23776;51.592;7.180;2024-02-16T13:23:30;15.20;1.00
37956;DHT22;23776;51.592;7.180;2024-02-16T13:25:56;15.20;1.00
37956;DHT22;23776;51.592;7.180;2024-02-16T13:28:22;15.10;1.00
37956;DHT22;23776;51.592;7.180;2024-02-16T13:30:47;15.10;1.00
37956;DHT22;23776;51.592;7.180;2024-02-16T13:33:13;15.10;1.00
37956;DHT22;23776;51.592;7.180;2024-02-16T13:35:38;15.00;1.00
37956;DHT22;23776;51.592;7.180;2024-02-16T13:38:04;15.10;1.00
37956;DHT22;23776;51.592;7.180;2024-02-16T13:40:30;14.90;1.00
37956;DHT22;23776;51.592;7.180;2024-02-16T13:42:55;14.90;1.00
37956;DHT22;23776;51.592;7.180;2024-02-16T13:45:27;14.50;39.40
37956;DHT22;23776;51.592;7.180;2024-02-16T13:47:53;14.30;71.90
37956;DHT22;23776;51.592;7.180;2024-02-16T13:50:18;14.10;81.30
37956;DHT22;23776;51.592;7.180;2024-02-16T13:52:44;13.90;90.70
37956;DHT22;23776;51.592;7.180;2024-02-16T13:55:10;13.70;96.20
37956;DHT22;23776;51.592;7.180;2024-02-16T13:57:36;13.50;99.20
37956;DHT22;23776;51.592;7.180;2024-02-16T14:00:01;13.40;99.90
37956;DHT22;23776;51.592;7.180;2024-02-16T14:02:27;13.40;99.90
37956;DHT22;23776;51.592;7.180;2024-02-16T14:04:53;13.30;99.90
37956;DHT22;23776;51.592;7.180;2024-02-16T14:07:18;13.10;99.90
37956;DHT22;23776;51.592;7.180;2024-02-16T14:09:44;13.20;99.90
37956;DHT22;23776;51.592;7.180;2024-02-16T14:12:09;13.10;99.90
37956;DHT22;23776;51.592;7.180;2024-02-16T14:14:35;13.00;99.90
37956;DHT22;23776;51.592;7.180;2024-02-16T14:17:00;13.00;99.90
37956;DHT22;23776;51.592;7.180;2024-02-16T14:19:26;12.90;99.90
37956;DHT22;23776;51.592;7.180;2024-02-16T14:24:18;13.00;99.90
37956;DHT22;23776;51.592;7.180;2024-02-16T14:26:43;12.90;99.90
37956;DHT22;23776;51.592;7.180;2024-02-16T14:29:09;12.90;99.90
37956;DHT22;23776;51.592;7.180;2024-02-16T14:31:36;13.00;99.90
37956;DHT22;23776;51.592;7.180;2024-02-16T14:34:01;12.90;99.90
37956;DHT22;23776;51.592;7.180;2024-02-16T14:36:27;12.90;99.90
37956;DHT22;23776;51.592;7.180;2024-02-16T14:38:52;12.90;99.90
37956;DHT22;23776;51.592;7.180;2024-02-16T14:41:18;12.90;99.90
37956;DHT22;23776;51.592;7.180;2024-02-16T14:43:44;13.00;99.90
37956;DHT22;23776;51.592;7.180;2024-02-16T14:46:09;12.90;99.90
37956;DHT22;23776;51.592;7.180;2024-02-16T14:48:36;12.90;99.90
37956;DHT22;23776;51.592;7.180;2024-02-16T14:51:02;12.80;99.90
37956;DHT22;23776;51.592;7.180;2024-02-16T14:53:28;12.80;99.90
37956;DHT22;23776;51.592;7.180;2024-02-16T14:55:58;12.80;99.90
37956;DHT22;23776;51.592;7.180;2024-02-16T14:58:24;12.70;99.90
37956;DHT22;23776;51.592;7.180;2024-02-16T15:00:49;12.80;99.90
37956;DHT22;23776;51.592;7.180;2024-02-16T15:03:15;12.70;99.90
37956;DHT22;23776;51.592;7.180;2024-02-16T15:05:41;12.70;99.90
37956;DHT22;23776;51.592;7.180;2024-02-16T15:08:06;12.60;99.90
37956;DHT22;23776;51.592;7.180;2024-02-16T15:10:32;12.60;99.90
37956;DHT22;23776;51.592;7.180;2024-02-16T15:12:58;12.60;99.90
37956;DHT22;23776;51.592;7.180;2024-02-16T15:15:23;12.60;99.90
37956;DHT22;23776;51.592;7.180;2024-02-16T15:17:49;12.60;99.90
37956;DHT22;23776;51.592;7.180;2024-02-16T15:20:14;12.60;99.90
37956;DHT22;23776;51.592;7.180;2024-02-16T15:22:40;12.60;99.90
37956;DHT22;23776;51.592;7.180;2024-02-16T15:25:09;12.60;99.90
37956;DHT22;23776;51.592;7.180;2024-02-16T15:27:36;12.60;99.90
37956;DHT22;23776;51.592;7.180;2024-02-16T15:30:02;12.60;99.90
37956;DHT22;23776;51.592;7.180;2024-02-16T15:32:28;12.60;99.90
37956;DHT22;23776;51.592;7.180;2024-02-16T15:34:55;12.70;99.90
37956;DHT22;23776;51.592;7.180;2024-02-16T15:37:20;12.70;99.90